sensor_id;sensor_type;location;lat;lon;timestamp;P1;durP1;ratioP1;P2;durP2;ratioP2
38123;SDS011;23934;47.998;9.832;2023-06-10T00:02:03;25.27;;;9.30;;
38123;SDS011;23934;47.998;9.832;2023-06-10T00:04:29;18.55;;;9.15;;
38123;SDS011;23934;47.998;9.832;2023-06-10T00:06:55;19.30;;;8.95;;
38123;SDS011;23934;47.998;9.832;2023-06-10T00:09:22;15.30;;;8.70;;
38123;SDS011;23934;47.998;9.832;2023-06-10T00:11:48;15.02;;;8.80;;
38123;SDS011;23934;47.998;9.832;2023-06-10T00:14:14;21.27;;;9.45;;
38123;SDS011;23934;47.998;9.832;2023-06-10T00:16:40;17.88;;;9.25;;
38123;SDS011;23934;47.998;9.832;2023-06-10T00:19:10;17.67;;;8.73;;
38123;SDS011;23934;47.998;9.832;2023-06-10T00:21:38;18.92;;;8.70;;
38123;SDS011;23934;47.998;9.832;2023-06-10T00:24:05;18.10;;;8.68;;
38123;SDS011;23934;47.998;9.832;2023-06-10T00:26:31;20.90;;;9.20;;
38123;SDS011;23934;47.998;9.832;2023-06-10T00:28:58;20.15;;;9.52;;
38123;SDS011;23934;47.998;9.832;2023-06-10T00:31:24;18.58;;;9.52;;
38123;SDS011;23934;47.998;9.832;2023-06-10T00:33:51;23.23;;;9.85;;
38123;SDS011;23934;47.998;9.832;2023-06-10T00:36:17;18.05;;;8.55;;
38123;SDS011;23934;47.998;9.832;2023-06-10T00:38:43;22.52;;;9.57;;
38123;SDS011;23934;47.998;9.832;2023-06-10T00:41:09;17.17;;;8.93;;
38123;SDS011;23934;47.998;9.832;2023-06-10T00:43:35;25.75;;;8.88;;
38123;SDS011;23934;47.998;9.832;2023-06-10T00:46:01;18.23;;;9.55;;
38123;SDS011;23934;47.998;9.832;2023-06-10T00:48:27;16.77;;;9.10;;
38123;SDS011;23934;47.998;9.832;2023-06-10T00:50:53;20.05;;;9.70;;
38123;SDS011;23934;47.998;9.832;2023-06-10T00:53:19;20.27;;;9.95;;
38123;SDS011;23934;47.998;9.832;2023-06-10T00:55:46;20.73;;;9.85;;
38123;SDS011;23934;47.998;9.832;2023-06-10T00:58:13;21.83;;;9.52;;
38123;SDS011;23934;47.998;9.832;2023-06-10T01:00:39;20.25;;;9.90;;
38123;SDS011;23934;47.998;9.832;2023-06-10T01:03:05;26.02;;;10.38;;
38123;SDS011;23934;47.998;9.832;2023-06-10T01:05:32;19.55;;;9.80;;
38123;SDS011;23934;47.998;9.832;2023-06-10T01:10:46;18.40;;;9.23;;
38123;SDS011;23934;47.998;9.832;2023-06-10T01:13:15;20.17;;;9.73;;
38123;SDS011;23934;47.998;9.832;2023-06-10T01:15:41;20.17;;;9.63;;
38123;SDS011;23934;47.998;9.832;2023-06-10T01:18:08;19.42;;;9.57;;
38123;SDS011;23934;47.998;9.832;2023-06-10T01:20:36;18.17;;;10.05;;
38123;SDS011;23934;47.998;9.832;2023-06-10T01:23:05;24.80;;;9.52;;
38123;SDS011;23934;47.998;9.832;2023-06-10T01:25:31;20.33;;;10.15;;
38123;SDS011;23934;47.998;9.832;2023-06-10T01:28:12;22.88;;;11.55;;
38123;SDS011;23934;47.998;9.832;2023-06-10T01:33:17;28.75;;;10.35;;
38123;SDS011;23934;47.998;9.832;2023-06-10T01:35:44;21.40;;;10.00;;
38123;SDS011;23934;47.998;9.832;2023-06-10T01:38:10;24.60;;;10.93;;
38123;SDS011;23934;47.998;9.832;2023-06-10T01:40:36;24.58;;;11.65;;
38123;SDS011;23934;47.998;9.832;2023-06-10T01:43:03;28.20;;;11.32;;
38123;SDS011;23934;47.998;9.832;2023-06-10T01:45:29;23.58;;;11.70;;
38123;SDS011;23934;47.998;9.832;2023-06-10T01:47:55;19.52;;;10.27;;
38123;SDS011;23934;47.998;9.832;2023-06-10T01:50:21;20.13;;;10.00;;
38123;SDS011;23934;47.998;9.832;2023-06-10T01:52:47;17.77;;;9.57;;
38123;SDS011;23934;47.998;9.832;2023-06-10T01:55:13;23.33;;;9.82;;
38123;SDS011;23934;47.998;9.832;2023-06-10T01:57:39;21.40;;;9.90;;
38123;SDS011;23934;47.998;9.832;2023-06-10T02:00:05;20.63;;;9.98;;
38123;SDS011;23934;47.998;9.832;2023-06-10T02:02:32;21.92;;;9.30;;
38123;SDS011;23934;47.998;9.832;2023-06-10T02:04:58;21.25;;;10.18;;
38123;SDS011;23934;47.998;9.832;2023-06-10T02:07:25;22.65;;;10.88;;
38123;SDS011;23934;47.998;9.832;2023-06-10T02:09:51;22.77;;;9.90;;
38123;SDS011;23934;47.998;9.832;2023-06-10T02:12:17;20.20;;;9.82;;
38123;SDS011;23934;47.998;9.832;2023-06-10T02:14:43;22.50;;;10.38;;
38123;SDS011;23934;47.998;9.832;2023-06-10T02:17:08;18.90;;;9.13;;
38123;SDS011;23934;47.998;9.832;2023-06-10T02:19:37;21.35;;;10.32;;
38123;SDS011;23934;47.998;9.832;2023-06-10T02:22:07;20.95;;;9.85;;
38123;SDS011;23934;47.998;9.832;2023-06-10T02:24:33;19.33;;;9.75;;
38123;SDS011;23934;47.998;9.832;2023-06-10T02:26:59;22.98;;;9.65;;
38123;SDS011;23934;47.998;9.832;2023-06-10T02:29:25;18.52;;;9.75;;
38123;SDS011;23934;47.998;9.832;2023-06-10T02:31:51;21.05;;;10.52;;
38123;SDS011;23934;47.998;9.832;2023-06-10T02:34:17;23.38;;;10.48;;
38123;SDS011;23934;47.998;9.832;2023-06-10T02:36:43;25.00;;;10.85;;
38123;SDS011;23934;47.998;9.832;2023-06-10T02:39:09;25.00;;;10.80;;
38123;SDS011;23934;47.998;9.832;2023-06-10T02:41:35;24.58;;;11.45;;
38123;SDS011;23934;47.998;9.832;2023-06-10T02:44:02;24.20;;;10.93;;
38123;SDS011;23934;47.998;9.832;2023-06-10T02:46:28;22.83;;;10.38;;
38123;SDS011;23934;47.998;9.832;2023-06-10T02:48:54;21.48;;;10.15;;
38123;SDS011;23934;47.998;9.832;2023-06-10T02:51:20;24.77;;;10.68;;
38123;SDS011;23934;47.998;9.832;2023-06-10T02:53:46;24.48;;;10.88;;
38123;SDS011;23934;47.998;9.832;2023-06-10T02:56:15;27.20;;;11.60;;
38123;SDS011;23934;47.998;9.832;2023-06-10T02:58:41;22.92;;;10.15;;
38123;SDS011;23934;47.998;9.832;2023-06-10T03:01:07;22.65;;;10.40;;
38123;SDS011;23934;47.998;9.832;2023-06-10T03:03:35;21.63;;;10.02;;
38123;SDS011;23934;47.998;9.832;2023-06-10T03:06:01;23.77;;;11.13;;
38123;SDS011;23934;47.998;9.832;2023-06-10T03:08:29;23.67;;;10.95;;
38123;SDS011;23934;47.998;9.832;2023-06-10T03:10:55;20.98;;;10.30;;
38123;SDS011;23934;47.998;9.832;2023-06-10T03:13:21;29.42;;;11.30;;
38123;SDS011;23934;47.998;9.832;2023-06-10T03:15:47;25.00;;;10.93;;
38123;SDS011;23934;47.998;9.832;2023-06-10T03:18:13;21.58;;;10.63;;
38123;SDS011;23934;47.998;9.832;2023-06-10T03:20:40;25.17;;;10.82;;
38123;SDS011;23934;47.998;9.832;2023-06-10T03:23:06;24.63;;;12.02;;
38123;SDS011;23934;47.998;9.832;2023-06-10T03:25:32;25.70;;;10.82;;
38123;SDS011;23934;47.998;9.832;2023-06-10T03:27:58;22.63;;;11.48;;
38123;SDS011;23934;47.998;9.832;2023-06-10T03:30:24;29.48;;;12.90;;
38123;SDS011;23934;47.998;9.832;2023-06-10T03:32:50;34.55;;;12.73;;
38123;SDS011;23934;47.998;9.832;2023-06-10T03:35:16;28.08;;;12.05;;
38123;SDS011;23934;47.998;9.832;2023-06-10T03:37:42;32.95;;;12.10;;
38123;SDS011;23934;47.998;9.832;2023-06-10T03:40:08;22.20;;;10.85;;
38123;SDS011;23934;47.998;9.832;2023-06-10T03:42:34;26.10;;;11.60;;
38123;SDS011;23934;47.998;9.832;2023-06-10T03:45:01;27.80;;;12.18;;
38123;SDS011;23934;47.998;9.832;2023-06-10T03:47:29;26.83;;;12.85;;
38123;SDS011;23934;47.998;9.832;2023-06-10T03:49:58;26.73;;;12.35;;
38123;SDS011;23934;47.998;9.832;2023-06-10T03:52:24;27.40;;;12.00;;
38123;SDS011;23934;47.998;9.832;2023-06-10T03:54:50;24.00;;;11.30;;
38123;SDS011;23934;47.998;9.832;2023-06-10T03:57:16;24.17;;;10.95;;
38123;SDS011;23934;47.998;9.832;2023-06-10T03:59:42;25.45;;;11.07;;
38123;SDS011;23934;47.998;9.832;2023-06-10T04:02:07;29.20;;;12.60;;
38123;SDS011;23934;47.998;9.832;2023-06-10T04:04:34;27.60;;;11.88;;
38123;SDS011;23934;47.998;9.832;2023-06-10T04:07:01;25.27;;;11.35;;
38123;SDS011;23934;47.998;9.832;2023-06-10T04:09:27;23.52;;;11.48;;
38123;SDS011;23934;47.998;9.832;2023-06-10T04:11:53;26.35;;;11.25;;
38123;SDS011;23934;47.998;9.832;2023-06-10T04:14:19;27.08;;;11.27;;
38123;SDS011;23934;47.998;9.832;2023-06-10T04:16:45;26.13;;;11.52;;
38123;SDS011;23934;47.998;9.832;2023-06-10T04:19:11;29.92;;;12.35;;
38123;SDS011;23934;47.998;9.832;2023-06-10T04:21:37;27.23;;;11.43;;
38123;SDS011;23934;47.998;9.832;2023-06-10T04:24:03;25.50;;;11.88;;
38123;SDS011;23934;47.998;9.832;2023-06-10T04:26:29;33.28;;;12.32;;
38123;SDS011;23934;47.998;9.832;2023-06-10T04:28:55;25.98;;;11.00;;
38123;SDS011;23934;47.998;9.832;2023-06-10T04:31:21;24.90;;;10.75;;
38123;SDS011;23934;47.998;9.832;2023-06-10T04:33:47;24.63;;;11.82;;
38123;SDS011;23934;47.998;9.832;2023-06-10T04:36:13;27.73;;;11.38;;
38123;SDS011;23934;47.998;9.832;2023-06-10T04:38:39;28.42;;;11.38;;
38123;SDS011;23934;47.998;9.832;2023-06-10T04:41:06;26.08;;;11.30;;
38123;SDS011;23934;47.998;9.832;2023-06-10T04:43:32;25.73;;;12.10;;
38123;SDS011;23934;47.998;9.832;2023-06-10T04:45:58;23.65;;;11.38;;
38123;SDS011;23934;47.998;9.832;2023-06-10T04:48:24;25.92;;;11.80;;
38123;SDS011;23934;47.998;9.832;2023-06-10T04:50:50;21.08;;;10.52;;
38123;SDS011;23934;47.998;9.832;2023-06-10T04:53:16;21.70;;;10.82;;
38123;SDS011;23934;47.998;9.832;2023-06-10T04:55:42;27.02;;;11.32;;
38123;SDS011;23934;47.998;9.832;2023-06-10T04:58:08;21.13;;;10.57;;
38123;SDS011;23934;47.998;9.832;2023-06-10T05:00:35;29.58;;;10.98;;
38123;SDS011;23934;47.998;9.832;2023-06-10T05:03:01;22.98;;;10.57;;
38123;SDS011;23934;47.998;9.832;2023-06-10T05:05:27;21.48;;;10.10;;
38123;SDS011;23934;47.998;9.832;2023-06-10T05:07:52;25.90;;;10.18;;
38123;SDS011;23934;47.998;9.832;2023-06-10T05:10:18;23.65;;;10.68;;
38123;SDS011;23934;47.998;9.832;2023-06-10T05:12:45;18.85;;;8.68;;
38123;SDS011;23934;47.998;9.832;2023-06-10T05:15:11;18.10;;;9.05;;
38123;SDS011;23934;47.998;9.832;2023-06-10T05:17:37;20.20;;;9.48;;
38123;SDS011;23934;47.998;9.832;2023-06-10T05:20:03;17.45;;;9.35;;
38123;SDS011;23934;47.998;9.832;2023-06-10T05:22:29;20.50;;;9.73;;
38123;SDS011;23934;47.998;9.832;2023-06-10T05:24:55;21.48;;;9.65;;
38123;SDS011;23934;47.998;9.832;2023-06-10T05:27:21;20.48;;;9.40;;
38123;SDS011;23934;47.998;9.832;2023-06-10T05:29:47;18.67;;;9.50;;
38123;SDS011;23934;47.998;9.832;2023-06-10T05:32:13;22.95;;;9.75;;
38123;SDS011;23934;47.998;9.832;2023-06-10T05:34:39;18.60;;;9.90;;
38123;SDS011;23934;47.998;9.832;2023-06-10T05:37:05;22.85;;;9.57;;
38123;SDS011;23934;47.998;9.832;2023-06-10T05:39:31;17.60;;;9.05;;
38123;SDS011;23934;47.998;9.832;2023-06-10T05:41:57;17.80;;;9.75;;
38123;SDS011;23934;47.998;9.832;2023-06-10T05:44:24;26.20;;;10.80;;
38123;SDS011;23934;47.998;9.832;2023-06-10T05:46:50;21.08;;;10.48;;
38123;SDS011;23934;47.998;9.832;2023-06-10T05:49:16;19.58;;;9.63;;
38123;SDS011;23934;47.998;9.832;2023-06-10T05:51:42;18.55;;;9.55;;
38123;SDS011;23934;47.998;9.832;2023-06-10T05:54:08;17.92;;;9.57;;
38123;SDS011;23934;47.998;9.832;2023-06-10T05:56:34;20.60;;;9.35;;
38123;SDS011;23934;47.998;9.832;2023-06-10T05:59:00;18.60;;;9.40;;
38123;SDS011;23934;47.998;9.832;2023-06-10T06:01:26;19.10;;;9.05;;
38123;SDS011;23934;47.998;9.832;2023-06-10T06:03:52;16.58;;;8.70;;
38123;SDS011;23934;47.998;9.832;2023-06-10T06:06:18;14.73;;;7.88;;
38123;SDS011;23934;47.998;9.832;2023-06-10T06:08:45;15.90;;;8.20;;
38123;SDS011;23934;47.998;9.832;2023-06-10T06:11:11;15.20;;;8.35;;
38123;SDS011;23934;47.998;9.832;2023-06-10T06:13:38;14.32;;;8.02;;
38123;SDS011;23934;47.998;9.832;2023-06-10T06:16:04;10.85;;;7.22;;
38123;SDS011;23934;47.998;9.832;2023-06-10T06:18:30;14.65;;;7.88;;
38123;SDS011;23934;47.998;9.832;2023-06-10T06:20:56;15.38;;;8.25;;
38123;SDS011;23934;47.998;9.832;2023-06-10T06:23:22;16.98;;;8.18;;
38123;SDS011;23934;47.998;9.832;2023-06-10T06:25:48;14.88;;;8.75;;
38123;SDS011;23934;47.998;9.832;2023-06-10T06:28:14;14.73;;;8.63;;
38123;SDS011;23934;47.998;9.832;2023-06-10T06:30:40;14.93;;;8.77;;
38123;SDS011;23934;47.998;9.832;2023-06-10T06:33:06;13.20;;;8.38;;
38123;SDS011;23934;47.998;9.832;2023-06-10T06:35:32;13.63;;;7.80;;
38123;SDS011;23934;47.998;9.832;2023-06-10T06:37:59;12.95;;;7.95;;
38123;SDS011;23934;47.998;9.832;2023-06-10T06:40:25;13.30;;;8.02;;
38123;SDS011;23934;47.998;9.832;2023-06-10T06:42:51;14.02;;;7.68;;
38123;SDS011;23934;47.998;9.832;2023-06-10T06:45:17;12.68;;;7.32;;
38123;SDS011;23934;47.998;9.832;2023-06-10T06:47:43;13.05;;;7.53;;
38123;SDS011;23934;47.998;9.832;2023-06-10T06:50:09;12.55;;;7.95;;
38123;SDS011;23934;47.998;9.832;2023-06-10T06:52:35;15.15;;;7.57;;
38123;SDS011;23934;47.998;9.832;2023-06-10T06:55:01;16.50;;;8.13;;
38123;SDS011;23934;47.998;9.832;2023-06-10T06:57:27;13.00;;;8.02;;
38123;SDS011;23934;47.998;9.832;2023-06-10T06:59:53;11.35;;;7.47;;
38123;SDS011;23934;47.998;9.832;2023-06-10T07:02:19;11.38;;;7.30;;
38123;SDS011;23934;47.998;9.832;2023-06-10T07:04:45;14.65;;;8.13;;
38123;SDS011;23934;47.998;9.832;2023-06-10T07:07:13;11.20;;;7.57;;
38123;SDS011;23934;47.998;9.832;2023-06-10T07:09:39;13.45;;;7.95;;
38123;SDS011;23934;47.998;9.832;2023-06-10T07:12:05;11.55;;;7.25;;
38123;SDS011;23934;47.998;9.832;2023-06-10T07:14:31;14.10;;;8.15;;
38123;SDS011;23934;47.998;9.832;2023-06-10T07:16:57;13.43;;;7.78;;
38123;SDS011;23934;47.998;9.832;2023-06-10T07:19:23;11.30;;;7.13;;
38123;SDS011;23934;47.998;9.832;2023-06-10T07:21:49;17.30;;;7.63;;
38123;SDS011;23934;47.998;9.832;2023-06-10T07:24:15;11.52;;;6.85;;
38123;SDS011;23934;47.998;9.832;2023-06-10T07:26:41;13.65;;;8.15;;
38123;SDS011;23934;47.998;9.832;2023-06-10T07:29:07;13.23;;;7.63;;
38123;SDS011;23934;47.998;9.832;2023-06-10T07:31:33;10.15;;;6.38;;
38123;SDS011;23934;47.998;9.832;2023-06-10T07:33:59;10.07;;;6.78;;
38123;SDS011;23934;47.998;9.832;2023-06-10T07:36:25;13.93;;;7.45;;
38123;SDS011;23934;47.998;9.832;2023-06-10T07:38:54;10.93;;;6.72;;
38123;SDS011;23934;47.998;9.832;2023-06-10T07:41:20;10.95;;;6.28;;
38123;SDS011;23934;47.998;9.832;2023-06-10T07:43:48;10.20;;;6.60;;
38123;SDS011;23934;47.998;9.832;2023-06-10T07:46:19;11.10;;;6.15;;
38123;SDS011;23934;47.998;9.832;2023-06-10T07:48:45;9.32;;;6.13;;
38123;SDS011;23934;47.998;9.832;2023-06-10T07:51:11;10.90;;;6.53;;
38123;SDS011;23934;47.998;9.832;2023-06-10T07:53:37;12.32;;;6.28;;
38123;SDS011;23934;47.998;9.832;2023-06-10T07:56:03;11.45;;;6.80;;
38123;SDS011;23934;47.998;9.832;2023-06-10T07:58:28;8.30;;;5.60;;
38123;SDS011;23934;47.998;9.832;2023-06-10T08:00:54;10.60;;;5.57;;
38123;SDS011;23934;47.998;9.832;2023-06-10T08:03:20;10.95;;;5.57;;
38123;SDS011;23934;47.998;9.832;2023-06-10T08:05:46;8.30;;;5.38;;
38123;SDS011;23934;47.998;9.832;2023-06-10T08:08:13;8.40;;;5.75;;
38123;SDS011;23934;47.998;9.832;2023-06-10T08:10:39;10.05;;;5.85;;
38123;SDS011;23934;47.998;9.832;2023-06-10T08:13:05;10.10;;;6.60;;
38123;SDS011;23934;47.998;9.832;2023-06-10T08:15:31;10.60;;;6.68;;
38123;SDS011;23934;47.998;9.832;2023-06-10T08:17:57;12.23;;;6.25;;
38123;SDS011;23934;47.998;9.832;2023-06-10T08:20:23;10.35;;;6.22;;
38123;SDS011;23934;47.998;9.832;2023-06-10T08:22:49;11.02;;;6.53;;
38123;SDS011;23934;47.998;9.832;2023-06-10T08:25:15;11.85;;;6.53;;
38123;SDS011;23934;47.998;9.832;2023-06-10T08:27:41;12.90;;;6.65;;
38123;SDS011;23934;47.998;9.832;2023-06-10T08:30:07;12.95;;;6.38;;
38123;SDS011;23934;47.998;9.832;2023-06-10T08:32:35;16.88;;;6.60;;
38123;SDS011;23934;47.998;9.832;2023-06-10T08:35:01;12.68;;;6.93;;
38123;SDS011;23934;47.998;9.832;2023-06-10T08:37:26;10.75;;;6.78;;
38123;SDS011;23934;47.998;9.832;2023-06-10T08:39:52;10.77;;;6.68;;
38123;SDS011;23934;47.998;9.832;2023-06-10T08:42:22;9.52;;;5.93;;
38123;SDS011;23934;47.998;9.832;2023-06-10T08:44:49;12.55;;;6.60;;
38123;SDS011;23934;47.998;9.832;2023-06-10T08:47:17;11.38;;;6.20;;
38123;SDS011;23934;47.998;9.832;2023-06-10T08:49:44;9.32;;;6.10;;
38123;SDS011;23934;47.998;9.832;2023-06-10T08:52:17;11.35;;;6.25;;
38123;SDS011;23934;47.998;9.832;2023-06-10T08:54:48;8.57;;;5.93;;
38123;SDS011;23934;47.998;9.832;2023-06-10T08:57:15;8.70;;;4.90;;
38123;SDS011;23934;47.998;9.832;2023-06-10T08:59:42;11.13;;;5.40;;
38123;SDS011;23934;47.998;9.832;2023-06-10T09:02:08;8.73;;;4.95;;
38123;SDS011;23934;47.998;9.832;2023-06-10T09:04:34;9.07;;;5.25;;
38123;SDS011;23934;47.998;9.832;2023-06-10T09:07:02;9.00;;;5.05;;
38123;SDS011;23934;47.998;9.832;2023-06-10T09:09:28;9.23;;;5.10;;
38123;SDS011;23934;47.998;9.832;2023-06-10T09:11:55;9.25;;;5.05;;
38123;SDS011;23934;47.998;9.832;2023-06-10T09:14:21;11.40;;;5.13;;
38123;SDS011;23934;47.998;9.832;2023-06-10T09:16:48;8.30;;;4.80;;
38123;SDS011;23934;47.998;9.832;2023-06-10T09:19:15;7.50;;;5.35;;
38123;SDS011;23934;47.998;9.832;2023-06-10T09:21:41;8.60;;;5.25;;
38123;SDS011;23934;47.998;9.832;2023-06-10T09:24:07;8.18;;;5.40;;
38123;SDS011;23934;47.998;9.832;2023-06-10T09:26:33;8.85;;;5.07;;
38123;SDS011;23934;47.998;9.832;2023-06-10T09:29:03;9.07;;;5.30;;
38123;SDS011;23934;47.998;9.832;2023-06-10T09:31:30;8.40;;;5.45;;
38123;SDS011;23934;47.998;9.832;2023-06-10T09:34:05;9.60;;;5.47;;
38123;SDS011;23934;47.998;9.832;2023-06-10T09:36:32;9.80;;;5.35;;
38123;SDS011;23934;47.998;9.832;2023-06-10T09:38:57;10.43;;;6.07;;
38123;SDS011;23934;47.998;9.832;2023-06-10T09:41:33;8.88;;;5.90;;
38123;SDS011;23934;47.998;9.832;2023-06-10T09:44:00;8.07;;;4.90;;
38123;SDS011;23934;47.998;9.832;2023-06-10T09:46:30;8.93;;;5.60;;
38123;SDS011;23934;47.998;9.832;2023-06-10T09:48:57;11.38;;;5.82;;
38123;SDS011;23934;47.998;9.832;2023-06-10T09:51:23;9.13;;;5.00;;
38123;SDS011;23934;47.998;9.832;2023-06-10T09:53:50;10.48;;;5.40;;
38123;SDS011;23934;47.998;9.832;2023-06-10T09:56:16;8.40;;;5.68;;
38123;SDS011;23934;47.998;9.832;2023-06-10T09:58:44;7.55;;;5.35;;
38123;SDS011;23934;47.998;9.832;2023-06-10T10:01:11;9.63;;;5.60;;
38123;SDS011;23934;47.998;9.832;2023-06-10T10:03:44;9.15;;;5.72;;
38123;SDS011;23934;47.998;9.832;2023-06-10T10:06:11;7.78;;;5.07;;
38123;SDS011;23934;47.998;9.832;2023-06-10T10:08:37;9.13;;;5.60;;
38123;SDS011;23934;47.998;9.832;2023-06-10T10:11:03;10.82;;;5.60;;
38123;SDS011;23934;47.998;9.832;2023-06-10T10:13:29;7.88;;;4.85;;
38123;SDS011;23934;47.998;9.832;2023-06-10T10:15:59;8.38;;;5.15;;
38123;SDS011;23934;47.998;9.832;2023-06-10T10:20:55;6.78;;;4.90;;
38123;SDS011;23934;47.998;9.832;2023-06-10T10:23:22;8.30;;;4.93;;
38123;SDS011;23934;47.998;9.832;2023-06-10T10:25:51;8.13;;;5.38;;
38123;SDS011;23934;47.998;9.832;2023-06-10T10:28:17;6.72;;;4.78;;
38123;SDS011;23934;47.998;9.832;2023-06-10T10:30:49;6.90;;;4.68;;
38123;SDS011;23934;47.998;9.832;2023-06-10T10:33:16;8.73;;;5.45;;
38123;SDS011;23934;47.998;9.832;2023-06-10T10:35:45;7.45;;;4.65;;
38123;SDS011;23934;47.998;9.832;2023-06-10T10:38:11;6.40;;;4.45;;
38123;SDS011;23934;47.998;9.832;2023-06-10T10:40:37;8.27;;;4.75;;
38123;SDS011;23934;47.998;9.832;2023-06-10T10:43:04;5.20;;;3.97;;
38123;SDS011;23934;47.998;9.832;2023-06-10T10:45:32;10.02;;;4.30;;
38123;SDS011;23934;47.998;9.832;2023-06-10T10:47:58;6.90;;;4.22;;
38123;SDS011;23934;47.998;9.832;2023-06-10T10:50:30;5.47;;;3.88;;
38123;SDS011;23934;47.998;9.832;2023-06-10T10:53:01;6.00;;;3.55;;
38123;SDS011;23934;47.998;9.832;2023-06-10T10:55:27;7.57;;;4.07;;
38123;SDS011;23934;47.998;9.832;2023-06-10T10:58:12;5.95;;;4.03;;
38123;SDS011;23934;47.998;9.832;2023-06-10T11:00:44;5.00;;;3.55;;
38123;SDS011;23934;47.998;9.832;2023-06-10T11:03:14;7.07;;;4.07;;
38123;SDS011;23934;47.998;9.832;2023-06-10T11:05:44;10.35;;;4.25;;
38123;SDS011;23934;47.998;9.832;2023-06-10T11:08:13;8.88;;;4.60;;
38123;SDS011;23934;47.998;9.832;2023-06-10T11:10:39;7.85;;;3.88;;
38123;SDS011;23934;47.998;9.832;2023-06-10T11:13:10;11.18;;;5.22;;
38123;SDS011;23934;47.998;9.832;2023-06-10T11:15:45;7.47;;;4.50;;
38123;SDS011;23934;47.998;9.832;2023-06-10T11:18:28;5.00;;;3.85;;
38123;SDS011;23934;47.998;9.832;2023-06-10T11:20:55;10.07;;;4.15;;
38123;SDS011;23934;47.998;9.832;2023-06-10T11:23:25;8.13;;;4.63;;
38123;SDS011;23934;47.998;9.832;2023-06-10T11:25:51;6.93;;;4.43;;
38123;SDS011;23934;47.998;9.832;2023-06-10T11:28:18;5.35;;;3.70;;
38123;SDS011;23934;47.998;9.832;2023-06-10T11:30:44;5.57;;;3.53;;
38123;SDS011;23934;47.998;9.832;2023-06-10T11:33:14;5.30;;;3.88;;
38123;SDS011;23934;47.998;9.832;2023-06-10T11:35:40;5.95;;;4.00;;
38123;SDS011;23934;47.998;9.832;2023-06-10T11:38:06;6.55;;;4.22;;
38123;SDS011;23934;47.998;9.832;2023-06-10T11:40:32;5.90;;;3.83;;
38123;SDS011;23934;47.998;9.832;2023-06-10T11:42:59;6.65;;;4.05;;
38123;SDS011;23934;47.998;9.832;2023-06-10T11:45:25;7.00;;;3.97;;
38123;SDS011;23934;47.998;9.832;2023-06-10T11:47:57;5.78;;;3.80;;
38123;SDS011;23934;47.998;9.832;2023-06-10T11:50:27;5.00;;;3.20;;
38123;SDS011;23934;47.998;9.832;2023-06-10T11:52:53;5.63;;;3.22;;
38123;SDS011;23934;47.998;9.832;2023-06-10T11:55:20;6.00;;;3.83;;
38123;SDS011;23934;47.998;9.832;2023-06-10T11:57:46;5.97;;;3.63;;
38123;SDS011;23934;47.998;9.832;2023-06-10T12:00:13;4.30;;;3.13;;
38123;SDS011;23934;47.998;9.832;2023-06-10T12:02:40;5.28;;;3.35;;
38123;SDS011;23934;47.998;9.832;2023-06-10T12:05:12;5.07;;;3.53;;
38123;SDS011;23934;47.998;9.832;2023-06-10T12:07:38;4.40;;;3.15;;
38123;SDS011;23934;47.998;9.832;2023-06-10T12:10:04;5.28;;;3.58;;
38123;SDS011;23934;47.998;9.832;2023-06-10T12:12:30;6.15;;;3.08;;
38123;SDS011;23934;47.998;9.832;2023-06-10T12:14:59;4.40;;;3.22;;
38123;SDS011;23934;47.998;9.832;2023-06-10T12:19:57;5.18;;;3.22;;
38123;SDS011;23934;47.998;9.832;2023-06-10T12:22:23;5.50;;;3.33;;
38123;SDS011;23934;47.998;9.832;2023-06-10T12:25:00;4.13;;;3.10;;
38123;SDS011;23934;47.998;9.832;2023-06-10T12:27:27;5.15;;;2.90;;
38123;SDS011;23934;47.998;9.832;2023-06-10T12:29:55;4.32;;;3.30;;
38123;SDS011;23934;47.998;9.832;2023-06-10T12:32:34;4.53;;;3.35;;
38123;SDS011;23934;47.998;9.832;2023-06-10T12:35:04;4.85;;;3.40;;
38123;SDS011;23934;47.998;9.832;2023-06-10T12:37:30;6.07;;;2.90;;
38123;SDS011;23934;47.998;9.832;2023-06-10T12:39:59;5.20;;;3.50;;
38123;SDS011;23934;47.998;9.832;2023-06-10T12:42:26;7.72;;;3.42;;
38123;SDS011;23934;47.998;9.832;2023-06-10T12:44:55;7.32;;;3.45;;
38123;SDS011;23934;47.998;9.832;2023-06-10T12:47:31;4.63;;;3.15;;
38123;SDS011;23934;47.998;9.832;2023-06-10T12:49:59;5.75;;;2.85;;
38123;SDS011;23934;47.998;9.832;2023-06-10T12:52:25;4.35;;;3.42;;
38123;SDS011;23934;47.998;9.832;2023-06-10T12:54:52;4.97;;;3.15;;
38123;SDS011;23934;47.998;9.832;2023-06-10T12:57:19;4.35;;;3.13;;
38123;SDS011;23934;47.998;9.832;2023-06-10T12:59:45;4.85;;;3.22;;
38123;SDS011;23934;47.998;9.832;2023-06-10T13:02:15;4.35;;;3.17;;
38123;SDS011;23934;47.998;9.832;2023-06-10T13:04:44;4.82;;;2.80;;
38123;SDS011;23934;47.998;9.832;2023-06-10T13:07:11;5.53;;;3.47;;
38123;SDS011;23934;47.998;9.832;2023-06-10T13:09:37;4.97;;;3.30;;
38123;SDS011;23934;47.998;9.832;2023-06-10T13:12:03;4.15;;;3.17;;
38123;SDS011;23934;47.998;9.832;2023-06-10T13:14:30;6.60;;;3.65;;
38123;SDS011;23934;47.998;9.832;2023-06-10T13:16:56;5.50;;;3.97;;
38123;SDS011;23934;47.998;9.832;2023-06-10T13:19:22;4.63;;;3.00;;
38123;SDS011;23934;47.998;9.832;2023-06-10T13:21:48;3.88;;;2.92;;
38123;SDS011;23934;47.998;9.832;2023-06-10T13:24:14;5.90;;;3.17;;
38123;SDS011;23934;47.998;9.832;2023-06-10T13:26:40;4.35;;;3.13;;
38123;SDS011;23934;47.998;9.832;2023-06-10T13:29:06;5.03;;;3.55;;
38123;SDS011;23934;47.998;9.832;2023-06-10T13:31:39;10.32;;;3.75;;
38123;SDS011;23934;47.998;9.832;2023-06-10T13:34:05;7.07;;;3.15;;
38123;SDS011;23934;47.998;9.832;2023-06-10T13:36:31;7.18;;;3.03;;
38123;SDS011;23934;47.998;9.832;2023-06-10T13:38:57;3.97;;;3.15;;
38123;SDS011;23934;47.998;9.832;2023-06-10T13:41:23;5.15;;;3.65;;
38123;SDS011;23934;47.998;9.832;2023-06-10T13:43:49;8.70;;;3.80;;
38123;SDS011;23934;47.998;9.832;2023-06-10T13:46:15;5.95;;;3.63;;
38123;SDS011;23934;47.998;9.832;2023-06-10T13:48:41;4.60;;;3.40;;
38123;SDS011;23934;47.998;9.832;2023-06-10T13:51:07;5.47;;;3.83;;
38123;SDS011;23934;47.998;9.832;2023-06-10T13:53:34;4.43;;;3.10;;
38123;SDS011;23934;47.998;9.832;2023-06-10T13:56:00;9.48;;;3.80;;
38123;SDS011;23934;47.998;9.832;2023-06-10T13:58:26;5.50;;;3.60;;
38123;SDS011;23934;47.998;9.832;2023-06-10T14:00:52;5.38;;;3.00;;
38123;SDS011;23934;47.998;9.832;2023-06-10T14:03:18;5.95;;;3.45;;
38123;SDS011;23934;47.998;9.832;2023-06-10T14:05:44;4.80;;;3.30;;
38123;SDS011;23934;47.998;9.832;2023-06-10T14:08:10;3.65;;;3.05;;
38123;SDS011;23934;47.998;9.832;2023-06-10T14:10:36;5.32;;;3.60;;
38123;SDS011;23934;47.998;9.832;2023-06-10T14:13:02;4.50;;;3.10;;
38123;SDS011;23934;47.998;9.832;2023-06-10T14:15:28;5.97;;;3.58;;
38123;SDS011;23934;47.998;9.832;2023-06-10T14:17:55;8.10;;;4.10;;
38123;SDS011;23934;47.998;9.832;2023-06-10T14:20:21;8.32;;;3.60;;
38123;SDS011;23934;47.998;9.832;2023-06-10T14:22:48;4.97;;;3.67;;
38123;SDS011;23934;47.998;9.832;2023-06-10T14:25:14;5.00;;;3.63;;
38123;SDS011;23934;47.998;9.832;2023-06-10T14:27:40;4.72;;;3.55;;
38123;SDS011;23934;47.998;9.832;2023-06-10T14:30:07;10.18;;;4.15;;
38123;SDS011;23934;47.998;9.832;2023-06-10T14:32:33;6.38;;;3.67;;
38123;SDS011;23934;47.998;9.832;2023-06-10T14:34:58;5.50;;;3.80;;
38123;SDS011;23934;47.998;9.832;2023-06-10T14:37:25;4.32;;;3.42;;
38123;SDS011;23934;47.998;9.832;2023-06-10T14:39:51;8.02;;;3.30;;
38123;SDS011;23934;47.998;9.832;2023-06-10T14:42:17;5.10;;;3.42;;
38123;SDS011;23934;47.998;9.832;2023-06-10T14:44:43;4.30;;;3.35;;